AirNav   Everest Fuels
 
 864 users online  

61OR The Citadel Airport
Sisters, Oregon, USA

GOING TO SISTERS?


FAA INFORMATION EFFECTIVE 21 MAY 2020

Location

FAA Identifier: 61OR
Lat/Long: 44-20-05.4230N 121-21-19.1470W
44-20.090383N 121-21.319117W
44.3348397,-121.3553186
(estimated)
Elevation: 3077 ft. / 938 m (estimated)
Variation: 19E (1985)
From city: 9 miles E of SISTERS, OR
Time zone: UTC -7 (UTC -8 during Standard Time)
Zip code: 97759

Airport Operations

Airport use: Private use. Permission required prior to landing
Activation date: 08/1985
Control tower: no
ARTCC: SEATTLE CENTER
FSS: MC MINNVILLE FLIGHT SERVICE STATION
Attendance: UNATNDD
Wind indicator: yes
Segmented circle: no

Airport Communications

WX ASOS at RDM (10 nm SE): 119.025 (541-504-8743)
WX AWOS-3 at BDN (16 nm SE): 134.425 (541-382-1477)
WX AWOS-3PT at S39 (20 nm E): 118.325 (541-447-4060)

Nearby radio navigation aids

VOR radial/distance  VOR name  Freq  Var
DSDr318/5.4DESCHUTES VORTAC117.6018E

Airport Services

Runway Information

Runway 7/25

Dimensions: 1500 x 100 ft. / 457 x 30 m
300 FT OVERRUN EACH END.
Surface: dirt, in fair condition
RUNWAY 7  RUNWAY 25
Traffic pattern: leftleft

Airport Ownership and Management from official FAA records

Ownership: Privately-owned
Owner: DANNY G. SAGE
P.O. BOX 67
TERREBONNE, OR 97760
Phone 206-619-1409
Manager: DANNY G. SAGE
P.O. BOX 67
TERREBONNE, OR 97760
Phone 206-619-1409
DAN SAGE 8536 DIBBLE AVE. NW SEATTLE, WA 98117 206-61-1409 DAN_SAGE@MSN.COM

Airport Operational Statistics

Aircraft based on the field: 2
Single engine airplanes: 2
    

Additional Remarks

OWNER DESIRES ARPT NOT TO BE CHARTED.
RWY OBSTRUCTED AT TIMES DUE TO ON GOING IMPROVEMENTS.
FOR CD CTC SEATTLE ARTCC AT 253-351-3694.
TREES & ROCKS ALONG BOTH SIDES OF RWY PROPERTY.
DEER ON RUNWAY.
RWY SOFT WHEN GROUND THAWING OR AFTER HEAVY RAIN.
SOFT SAND AT TOUCHDOWN END OF RWY 25.
5 FEET DISPLACEMENT (STEEP SLOPE) 1800 FEET FM TOUCHDOWN END OF RWY 25.
TREES & ROCKS 2100 FT FROM TOUCHDOWN END OF RWY 25.
OVER RUN AREAS 300 FT OVER RUN EACH END.
300 FT DROP OFF AT APCH END OF RWY 25 AND 600 FT FROM TOUCHDOWN OF RWY 07.

Instrument Procedures

There are no published instrument procedures at 61OR.

Some nearby airports with instrument procedures:

KRDM - Roberts Field Airport (10 nm SE)
KBDN - Bend Municipal Airport (16 nm SE)
S39 - Prineville Airport (20 nm E)
S33 - Madras Municipal Airport (22 nm NE)
S21 - Sunriver Airport (28 nm S)
 
Loc | Ops | Rwys | IFR | FBO | Links
Com | Nav | Svcs | Stats | Notes
Area around 61OR (The Citadel Airport)
 
Road maps at: MapQuest Bing Google
 
Aerial photo
WARNING: Photo may not be current or correct
Aerial photo of 61OR (The Citadel Airport)
Photo taken 24-Mar-2014
looking east.

Do you have a better or more recent aerial photo of The Citadel Airport that you would like to share? If so, please send us your photo.

 
Sectional chart

 
Airport distance calculator
Flying to The Citadel Airport? Find the distance to fly.

From to 61OR

Sunrise and sunset
Times for 06-Jun-2020
 Local
(UTC-7)
 Zulu
(UTC)
Morning civil twilight04:4711:47
Sunrise05:2312:23
Sunset20:4603:46
Evening civil twilight21:2204:22

Current date and time
Zulu (UTC)  07-Jun-2020 02:49:44
Local (UTC-7)  06-Jun-2020 19:49:44
 
METAR
KRDM 
10nm SE 
070156Z 29021G26KT 10SM BKN075 OVC085 11/M01 A2983 RMK AO2 PK WND 29026/0155 SLP097 T01061006
KBDN 
16nm SE 
070235Z AUTO 32005KT 10SM CLR 10/01 A2985 RMK AO2
KS39 
20nm E 
070235Z AUTO 29010G15KT 10SM SCT070 08/01 A2983 RMK AO2
TAF
KRDM 
10nm SE 
062136Z 0622/0718 29014KT P6SM VCSH SCT050 BKN070 FM070000 29017G25KT P6SM VCSH BKN050 OVC060 FM070400 30017G24KT P6SM OVC050 FM070900 23015KT P6SM OVC050 FM071500 28014KT P6SM OVC040
KBDN 
16nm SE 
070038Z 0701/0724 24008G18KT P6SM VCSH BKN040 OVC050 FM070600 23011KT P6SM OVC050 FM071500 24010KT P6SM OVC040 FM071800 29014G24KT P6SM OVC050
NOTAMs
Click for the latest NOTAMs
NOTAMs are issued by the DoD/FAA and will open in a separate window not controlled by AirNav.

 

 
 

Would you like to see your business listed on this page?

 If your business provides an interesting product or service to pilots, flight crews, aircraft, or users of the The Citadel Airport, you should consider listing it here.  To start the listing process, click on the button below
 
Add a business
 

Other Pages about The Citadel Airport

Update a link
 
Copyright © AirNav, LLC. All rights reserved. Privacy Policy  Contact